This is the latest recevied weather packets stored in our database for station/object SQ9IWE-13. If no packets are shown the sender has not sent any weather packets the latest 10 day(s).
| Time | Temp. | Humidity | Pressure | Rain* | Wind** | Luminosity | Snow |
|---|---|---|---|---|---|---|---|
| 1777462201 | 14.44° C | 27% | 1025.6 hPa | - | - | - | - |
| 1777461601 | 15° C | 28% | 1025.5 hPa | - | - | - | - |
| 1777461001 | 15° C | 29% | 1025.5 hPa | - | - | - | - |
| 1777460401 | 15° C | 28% | 1025.4 hPa | - | - | - | - |
| 1777459801 | 13.33° C | 31% | 1025.5 hPa | - | - | - | - |
| 1777459201 | 12.78° C | 31% | 1025.5 hPa | - | - | - | - |
| 1777458601 | 12.22° C | 33% | 1025.6 hPa | - | - | - | - |
| 1777458001 | 12.78° C | 34% | 1025.6 hPa | - | - | - | - |
| 1777457401 | 12.22° C | 36% | 1025.8 hPa | - | - | - | - |
| 1777456801 | 13.33° C | 34% | 1025.6 hPa | - | - | - | - |
| 1777456201 | 12.78° C | 36% | 1025.7 hPa | - | - | - | - |
| 1777455601 | 13.89° C | 35% | 1025.7 hPa | - | - | - | - |
| 1777455001 | 15° C | 35% | 1025.8 hPa | - | - | - | - |
| 1777454401 | 11.11° C | 37% | 1025.6 hPa | - | - | - | - |
| 1777453801 | 11.11° C | 42% | 1025.6 hPa | - | - | - | - |
| 1777453201 | 9.44° C | 41% | 1025.7 hPa | - | - | - | - |
| 1777452601 | 11.67° C | 38% | 1025.7 hPa | - | - | - | - |
| 1777452001 | 12.22° C | 39% | 1025.7 hPa | - | - | - | - |
| 1777451401 | 11.11° C | 38% | 1025.8 hPa | - | - | - | - |
| 1777450801 | 11.11° C | 40% | 1025.6 hPa | - | - | - | - |
| 1777450201 | 11.11° C | 38% | 1025.5 hPa | - | - | - | - |
| 1777449601 | 11.11° C | 39% | 1025.4 hPa | - | - | - | - |
| 1777449001 | 13.89° C | 36% | 1025.4 hPa | - | - | - | - |
| 1777448401 | 12.78° C | 39% | 1025.4 hPa | - | - | - | - |
| 1777447801 | 11.11° C | 41% | 1025.3 hPa | - | - | - | - |
* Rain since midnight (hover to see other rain measurements)
** Current wind speed in m/s (hover to see current wind gust speed)